createdAt,value
2018-06-30T19:09:34.689Z,97512.35
2018-06-30T19:12:33.333Z,97511.55
2018-06-30T19:18:23.642Z,97514.70
2018-06-30T19:21:07.520Z,97521.51
2018-06-30T19:23:52.689Z,97523.69
2018-06-30T19:26:34.709Z,97524.39
2018-06-30T19:29:12.866Z,97526.30
2018-06-30T19:32:48.241Z,97528.61
2018-06-30T19:40:55.336Z,97531.84
2018-06-30T19:49:32.018Z,97547.30
2018-06-30T19:52:14.533Z,97548.85
2018-06-30T19:54:50.997Z,97557.88
2018-06-30T19:57:26.997Z,97551.84
2018-06-30T20:25:33.797Z,97579.50
2018-06-30T20:28:09.763Z,97584.49
2018-06-30T20:30:47.544Z,97584.45
2018-06-30T20:33:21.454Z,97587.36
2018-06-30T20:35:59.414Z,97586.52
2018-06-30T20:38:43.673Z,97589.15
2018-06-30T20:41:18.140Z,97590.09
2018-06-30T20:44:23.690Z,97594.66
2018-06-30T20:47:34.165Z,97594.86
2018-06-30T20:50:11.546Z,97592.45
2018-06-30T20:52:47.505Z,97592.00
2018-06-30T20:55:24.717Z,97598.94
2018-06-30T20:57:59.477Z,97593.38
2018-06-30T21:00:39.851Z,97597.27
2018-06-30T21:03:16.943Z,97601.66
2018-06-30T21:05:53.844Z,97602.95
2018-06-30T21:08:39.207Z,97600.42
2018-06-30T21:18:25.162Z,97605.63
2018-06-30T21:21:04.717Z,97610.77
2018-06-30T21:26:43.552Z,97607.86
2018-06-30T21:29:18.869Z,97615.27
2018-06-30T21:31:58.095Z,97609.38
2018-06-30T21:34:35.887Z,97613.28
2018-06-30T21:37:12.299Z,97620.21
2018-06-30T21:39:46.823Z,97617.34
2018-06-30T21:42:20.611Z,97621.27
2018-06-30T21:44:55.697Z,97629.84
2018-06-30T21:47:35.460Z,97625.23
2018-06-30T21:50:20.980Z,97616.27
2018-06-30T21:52:56.779Z,97624.96
2018-06-30T21:55:34.313Z,97628.48
2018-06-30T21:58:08.979Z,97626.80
2018-06-30T22:01:51.115Z,97632.78
2018-06-30T22:04:26.190Z,97628.98
2018-06-30T22:06:59.686Z,97630.13
2018-06-30T22:09:30.336Z,97626.86
2018-06-30T22:12:03.617Z,97629.59
2018-06-30T22:14:39.183Z,97642.38
2018-06-30T22:17:11.748Z,97636.71
2018-06-30T22:19:42.383Z,97633.55
2018-06-30T22:22:15.928Z,97630.64
2018-06-30T22:24:49.140Z,97633.39
2018-06-30T22:27:24.521Z,97634.48
2018-06-30T22:29:57.292Z,97629.12
2018-06-30T22:32:28.009Z,97637.63
2018-06-30T22:35:00.093Z,97638.55
2018-06-30T22:37:37.094Z,97634.02
2018-06-30T22:40:16.443Z,97636.77
2018-06-30T22:42:48.212Z,97637.64
